createdAt,value
2019-03-28T00:01:18.355Z,90.17
2019-03-28T00:03:49.263Z,90.30
2019-03-28T00:06:19.741Z,90.37
2019-03-28T00:08:50.528Z,90.43
2019-03-28T00:11:21.268Z,89.99
2019-03-28T00:13:53.642Z,89.70
2019-03-28T00:16:24.466Z,90.20
2019-03-28T00:18:57.546Z,89.98
2019-03-28T00:21:27.805Z,89.89
2019-03-28T00:24:03.222Z,89.91
2019-03-28T00:26:33.984Z,90.08
2019-03-28T00:29:04.545Z,89.99
2019-03-28T00:31:38.186Z,90.26
2019-03-28T00:34:09.033Z,89.82
2019-03-28T00:36:39.894Z,89.95
2019-03-28T00:39:10.597Z,90.13
2019-03-28T00:41:41.037Z,89.97
2019-03-28T00:44:11.866Z,90.16
2019-03-28T00:46:42.738Z,90.19
2019-03-28T00:49:13.527Z,90.42
2019-03-28T00:51:44.468Z,90.52
2019-03-28T00:54:15.348Z,90.59
2019-03-28T00:56:47.892Z,90.22
2019-03-28T00:59:20.156Z,90.48
2019-03-28T01:01:51.948Z,90.35
2019-03-28T01:04:22.986Z,90.24
2019-03-28T01:06:53.928Z,90.44
2019-03-28T01:09:24.866Z,90.37
2019-03-28T01:11:55.300Z,90.58
2019-03-28T01:14:27.670Z,90.77
2019-03-28T01:16:58.504Z,90.86
2019-03-28T01:19:29.438Z,90.55
2019-03-28T01:22:00.240Z,90.79
2019-03-28T01:24:31.180Z,90.71
2019-03-28T01:27:02.048Z,90.44
2019-03-28T01:29:36.059Z,90.55
2019-03-28T01:32:08.020Z,90.49
2019-03-28T01:34:38.848Z,90.62
2019-03-28T01:37:11.896Z,90.74
2019-03-28T01:39:42.453Z,90.55
2019-03-28T01:42:13.402Z,90.69
2019-03-28T01:44:44.250Z,90.40
2019-03-28T01:47:15.148Z,90.40
2019-03-28T01:49:46.028Z,90.08
2019-03-28T01:52:16.748Z,90.16
2019-03-28T01:54:47.325Z,90.27
2019-03-28T01:57:18.382Z,90.52
2019-03-28T01:59:58.160Z,90.42
2019-03-28T02:02:28.572Z,90.43
2019-03-28T02:04:59.443Z,90.76
2019-03-28T02:07:30.158Z,90.99
2019-03-28T02:10:01.062Z,91.01
2019-03-28T02:12:31.850Z,90.86
2019-03-28T02:15:02.812Z,90.96
2019-03-28T02:17:33.747Z,90.98
2019-03-28T02:20:07.413Z,90.62
2019-03-28T02:22:38.327Z,90.66
2019-03-28T02:25:09.434Z,90.46
2019-03-28T02:27:40.258Z,90.39
2019-03-28T02:30:11.707Z,90.49
2019-03-28T02:32:42.683Z,90.71
2019-03-28T02:35:13.160Z,90.49
2019-03-28T02:37:44.001Z,90.64
2019-03-28T02:40:14.836Z,90.44
2019-03-28T02:42:45.675Z,90.42
2019-03-28T02:45:16.496Z,90.90
2019-03-28T02:47:46.909Z,90.74
2019-03-28T02:50:17.756Z,91.12
2019-03-28T02:52:48.169Z,90.54
2019-03-28T02:55:18.957Z,90.69
2019-03-28T02:57:49.663Z,90.55
2019-03-28T03:00:20.914Z,90.90
2019-03-28T03:02:52.066Z,90.90
2019-03-28T03:05:22.995Z,90.78
2019-03-28T03:07:53.729Z,91.09
2019-03-28T03:10:24.570Z,91.12
2019-03-28T03:12:55.307Z,90.48
2019-03-28T03:15:26.217Z,90.71
2019-03-28T03:17:56.978Z,90.20
2019-03-28T03:20:27.710Z,90.26
2019-03-28T03:22:58.555Z,90.83
2019-03-28T03:25:29.383Z,90.51
2019-03-28T03:28:00.130Z,90.09
2019-03-28T03:30:31.745Z,90.46
2019-03-28T03:33:03.174Z,90.52
2019-03-28T03:35:34.062Z,90.40
2019-03-28T03:38:04.899Z,90.48
2019-03-28T03:40:35.863Z,90.24
2019-03-28T03:43:06.366Z,90.50
2019-03-28T03:45:37.300Z,90.75
2019-03-28T03:48:08.149Z,90.41
2019-03-28T03:50:39.045Z,90.36
2019-03-28T03:53:09.819Z,90.69
2019-03-28T03:55:40.574Z,90.48
2019-03-28T03:58:16.097Z,90.50
2019-03-28T04:00:44.043Z,90.36
2019-03-28T04:03:14.795Z,90.46
2019-03-28T04:05:45.663Z,90.06
2019-03-28T04:08:16.559Z,89.99
2019-03-28T04:10:47.435Z,89.92
2019-03-28T04:13:18.332Z,90.48
2019-03-28T04:15:49.066Z,90.94
2019-03-28T04:18:22.068Z,90.03
2019-03-28T04:20:52.504Z,90.51
2019-03-28T04:23:23.440Z,90.01
2019-03-28T04:25:54.152Z,90.20
2019-03-28T04:28:32.239Z,90.54
2019-03-28T04:30:57.145Z,90.23
2019-03-28T04:33:30.528Z,90.11
2019-03-28T04:36:01.212Z,90.20
2019-03-28T04:38:31.995Z,90.04
2019-03-28T04:41:02.795Z,90.12
2019-03-28T04:43:33.609Z,89.87
2019-03-28T04:46:04.440Z,89.97
2019-03-28T04:48:36.821Z,90.47
2019-03-28T04:51:07.663Z,90.54
2019-03-28T04:53:38.513Z,89.85
2019-03-28T04:56:09.297Z,90.10
2019-03-28T04:58:44.798Z,90.09
2019-03-28T05:01:12.349Z,90.14
2019-03-28T05:03:43.160Z,89.82
2019-03-28T05:06:14.107Z,90.09
2019-03-28T05:08:45.157Z,90.22
2019-03-28T05:11:17.426Z,90.48
2019-03-28T05:13:48.162Z,90.01
2019-03-28T05:16:19.146Z,90.22
2019-03-28T05:18:50.149Z,90.12
2019-03-28T05:21:21.079Z,90.21
2019-03-28T05:23:51.992Z,90.36
2019-03-28T05:26:23.671Z,90.11
2019-03-28T05:28:57.807Z,90.42
2019-03-28T05:31:27.412Z,90.48
2019-03-28T05:34:01.301Z,90.47
2019-03-28T05:36:38.218Z,90.18
2019-03-28T05:39:10.586Z,90.49
2019-03-28T05:41:41.421Z,90.47
2019-03-28T05:44:11.916Z,90.47
2019-03-28T05:46:42.770Z,90.40
2019-03-28T05:49:13.488Z,90.00
2019-03-28T05:51:45.930Z,90.04
2019-03-28T05:54:19.536Z,89.88
2019-03-28T05:56:50.412Z,90.33
2019-03-28T05:59:20.855Z,90.22
2019-03-28T06:01:51.739Z,90.41
2019-03-28T06:04:22.716Z,90.09
2019-03-28T06:06:53.455Z,89.53
2019-03-28T06:09:24.372Z,89.71
2019-03-28T06:11:55.332Z,90.16
2019-03-28T06:14:27.680Z,89.75
2019-03-28T06:16:58.438Z,89.65
2019-03-28T06:19:29.388Z,89.95
2019-03-28T06:22:00.225Z,89.63
2019-03-28T06:24:31.344Z,89.63
2019-03-28T06:27:02.384Z,90.38
2019-03-28T06:29:33.219Z,90.02
2019-03-28T06:32:04.279Z,89.98
2019-03-28T06:34:35.208Z,89.86
2019-03-28T06:37:07.762Z,89.45
2019-03-28T06:39:38.595Z,90.02
2019-03-28T06:42:09.378Z,90.18
2019-03-28T06:44:40.167Z,89.92
2019-03-28T06:47:12.296Z,89.88
2019-03-28T06:49:42.770Z,90.35
2019-03-28T06:52:13.687Z,90.29
2019-03-28T06:54:44.554Z,90.03
2019-03-28T06:57:15.278Z,90.18
2019-03-28T06:59:47.692Z,89.99
2019-03-28T07:02:21.693Z,89.95
2019-03-28T07:04:51.059Z,90.02
2019-03-28T07:07:21.984Z,90.16
2019-03-28T07:09:53.054Z,90.22
2019-03-28T07:12:23.910Z,89.44
2019-03-28T07:14:54.820Z,90.14
2019-03-28T07:17:25.595Z,90.35
2019-03-28T07:19:56.412Z,89.53
2019-03-28T07:22:27.881Z,90.06
2019-03-28T07:24:58.778Z,90.28
2019-03-28T07:27:29.772Z,90.19
2019-03-28T07:30:00.781Z,89.82
2019-03-28T07:32:31.702Z,90.27
2019-03-28T07:35:02.553Z,90.74
2019-03-28T07:37:35.040Z,90.13
2019-03-28T07:40:07.109Z,90.55
2019-03-28T07:42:38.219Z,90.25
2019-03-28T07:45:09.693Z,89.46
2019-03-28T07:47:40.516Z,89.55
2019-03-28T07:50:12.943Z,89.51
2019-03-28T07:52:43.851Z,89.20
2019-03-28T07:55:16.511Z,89.64
2019-03-28T07:57:47.060Z,89.64
2019-03-28T08:00:18.096Z,89.53
2019-03-28T08:02:49.012Z,89.53
2019-03-28T08:05:20.048Z,89.11
2019-03-28T08:07:50.780Z,89.20
2019-03-28T08:10:21.610Z,88.85
2019-03-28T08:12:52.610Z,89.15
2019-03-28T08:15:23.556Z,89.17
2019-03-28T08:17:54.472Z,89.25
2019-03-28T08:20:25.569Z,88.87
2019-03-28T08:22:56.332Z,88.33
2019-03-28T08:25:27.217Z,88.83
2019-03-28T08:27:58.230Z,88.67
2019-03-28T08:30:34.728Z,89.25
2019-03-28T08:33:06.764Z,88.75
2019-03-28T08:35:38.231Z,88.30
2019-03-28T08:38:10.194Z,88.74
2019-03-28T08:40:44.066Z,88.45
2019-03-28T08:43:15.114Z,87.83
2019-03-28T08:45:46.134Z,88.49
2019-03-28T08:48:17.038Z,87.98
2019-03-28T08:50:47.919Z,87.25
2019-03-28T08:53:20.099Z,87.93
2019-03-28T08:55:51.251Z,87.53
2019-03-28T08:58:22.234Z,87.74
2019-03-28T09:00:53.252Z,87.36
2019-03-28T09:03:24.067Z,87.15
2019-03-28T09:05:54.888Z,87.22
2019-03-28T09:08:25.578Z,87.65
2019-03-28T09:10:56.371Z,87.25
2019-03-28T09:13:27.296Z,87.71
2019-03-28T09:15:57.867Z,87.84
2019-03-28T09:18:28.649Z,88.06
2019-03-28T09:20:59.187Z,87.67
2019-03-28T09:23:29.772Z,87.58
2019-03-28T09:26:00.560Z,87.32
2019-03-28T09:28:31.075Z,87.97
2019-03-28T09:31:02.424Z,87.76
2019-03-28T09:33:33.465Z,87.72
2019-03-28T09:36:03.911Z,87.60
2019-03-28T09:38:34.767Z,87.37
2019-03-28T09:41:05.717Z,87.60
2019-03-28T09:43:36.638Z,86.58
2019-03-28T09:46:07.543Z,87.04
2019-03-28T09:48:38.324Z,87.12
2019-03-28T09:51:08.784Z,87.17
2019-03-28T09:53:39.781Z,87.06
2019-03-28T09:56:10.684Z,87.17
2019-03-28T09:58:41.444Z,86.73
2019-03-28T10:01:12.298Z,87.33
2019-03-28T10:03:43.206Z,87.42
2019-03-28T10:06:14.084Z,87.17
2019-03-28T10:08:45.086Z,86.80
2019-03-28T10:11:15.602Z,87.29
2019-03-28T10:13:46.464Z,87.30
2019-03-28T10:16:17.298Z,86.67
2019-03-28T10:18:48.155Z,87.60
2019-03-28T10:21:19.185Z,86.92
2019-03-28T10:23:49.991Z,87.07
2019-03-28T10:26:20.825Z,87.04
2019-03-28T10:28:51.907Z,87.10
2019-03-28T10:31:22.390Z,87.47
2019-03-28T10:33:53.278Z,87.56
2019-03-28T10:36:24.095Z,87.05
2019-03-28T10:38:54.999Z,86.31
2019-03-28T10:41:25.981Z,87.29
2019-03-28T10:43:56.998Z,87.41
2019-03-28T10:46:27.503Z,87.51
2019-03-28T10:48:58.271Z,86.66
2019-03-28T10:51:30.241Z,86.16
2019-03-28T10:54:01.113Z,87.12
2019-03-28T10:56:32.100Z,86.79
2019-03-28T10:59:02.627Z,86.11
2019-03-28T11:01:47.985Z,85.60
2019-03-28T11:04:06.196Z,85.77
2019-03-28T11:06:36.735Z,85.56
2019-03-28T11:09:08.588Z,85.19
2019-03-28T11:11:39.693Z,85.30
2019-03-28T11:14:10.203Z,85.51
2019-03-28T11:16:40.991Z,85.38
2019-03-28T11:19:11.791Z,85.30
2019-03-28T11:21:42.783Z,84.75
2019-03-28T11:24:13.568Z,83.86
2019-03-28T11:26:44.153Z,85.71
2019-03-28T11:29:14.749Z,85.28
2019-03-28T11:31:46.814Z,85.74
2019-03-28T11:34:17.378Z,84.90
2019-03-28T11:36:48.159Z,83.52
2019-03-28T11:39:18.741Z,84.74
2019-03-28T11:41:49.329Z,84.28
2019-03-28T11:44:20.080Z,83.83
2019-03-28T11:46:50.567Z,84.52
2019-03-28T11:49:21.557Z,82.88
2019-03-28T11:51:52.041Z,83.07
2019-03-28T11:54:22.789Z,83.00
2019-03-28T11:56:53.432Z,83.67
2019-03-28T11:59:24.317Z,84.50
2019-03-28T12:02:00.462Z,84.28
2019-03-28T12:04:28.747Z,85.03
2019-03-28T12:06:59.523Z,84.85
2019-03-28T12:09:30.464Z,84.36
2019-03-28T12:12:01.314Z,84.00
2019-03-28T12:14:32.177Z,83.75
2019-03-28T12:17:03.065Z,84.32
2019-03-28T12:19:35.059Z,84.42
2019-03-28T12:22:05.786Z,84.29
2019-03-28T12:24:36.319Z,83.69
2019-03-28T12:27:06.877Z,84.79
2019-03-28T12:29:37.823Z,84.70
2019-03-28T12:32:14.243Z,85.26
2019-03-28T12:34:40.713Z,83.75
2019-03-28T12:37:11.543Z,84.98
2019-03-28T12:39:42.358Z,85.34
2019-03-28T12:42:13.397Z,85.05
2019-03-28T12:44:56.290Z,85.50
2019-03-28T12:47:16.913Z,85.68
2019-03-28T12:49:47.767Z,85.89
2019-03-28T12:52:18.807Z,86.02
2019-03-28T12:54:49.657Z,85.42
2019-03-28T12:57:20.131Z,85.33
2019-03-28T12:59:53.470Z,85.46
2019-03-28T13:02:31.371Z,85.44
2019-03-28T13:04:56.066Z,84.61
2019-03-28T13:07:26.883Z,84.06
2019-03-28T13:09:57.835Z,84.50
2019-03-28T13:12:28.775Z,84.10
2019-03-28T13:14:59.758Z,84.45
2019-03-28T13:17:30.265Z,83.65
2019-03-28T13:20:01.117Z,83.10
2019-03-28T13:22:31.668Z,83.04
2019-03-28T13:25:02.868Z,83.39
2019-03-28T13:27:34.731Z,84.24
2019-03-28T13:30:12.094Z,83.37
2019-03-28T13:32:44.138Z,84.02
2019-03-28T13:35:15.014Z,83.56
2019-03-28T13:37:48.494Z,83.73
2019-03-28T13:40:18.834Z,83.16
2019-03-28T13:42:52.781Z,82.82
2019-03-28T13:45:22.223Z,82.95
2019-03-28T13:47:54.414Z,83.93
2019-03-28T13:50:28.250Z,83.02
2019-03-28T13:53:00.329Z,83.55
2019-03-28T13:55:31.086Z,83.60
2019-03-28T13:58:01.625Z,83.82
2019-03-28T14:00:33.916Z,83.23
2019-03-28T14:03:04.848Z,83.38
2019-03-28T14:05:36.853Z,83.24
2019-03-28T14:08:07.745Z,83.37
2019-03-28T14:10:40.295Z,83.03
2019-03-28T14:13:11.118Z,82.20
2019-03-28T14:15:44.618Z,83.35
2019-03-28T14:18:15.532Z,83.49
2019-03-28T14:20:46.449Z,83.91
2019-03-28T14:23:17.927Z,84.10
2019-03-28T14:25:49.334Z,83.66
2019-03-28T14:28:19.823Z,83.79
2019-03-28T14:30:50.616Z,83.36
2019-03-28T14:33:21.150Z,84.19
2019-03-28T14:35:51.683Z,84.30
2019-03-28T14:38:22.585Z,84.93
2019-03-28T14:40:53.339Z,85.49
2019-03-28T14:43:24.188Z,85.87
2019-03-28T14:45:55.024Z,85.63
2019-03-28T14:48:25.927Z,85.41
2019-03-28T14:50:57.459Z,85.18
2019-03-28T14:53:28.841Z,84.16
2019-03-28T14:56:00.922Z,83.27
2019-03-28T14:58:35.127Z,84.81
2019-03-28T15:01:09.026Z,85.19
2019-03-28T15:03:44.684Z,85.97
2019-03-28T15:06:12.349Z,85.95
2019-03-28T15:08:43.547Z,85.80
2019-03-28T15:11:14.746Z,85.90
2019-03-28T15:13:45.573Z,85.46
2019-03-28T15:16:16.400Z,85.26
2019-03-28T15:18:47.260Z,84.95
2019-03-28T15:21:18.090Z,85.56
2019-03-28T15:23:48.824Z,85.95
2019-03-28T15:26:19.998Z,86.38
2019-03-28T15:28:50.912Z,86.95
2019-03-28T15:31:21.865Z,87.07
2019-03-28T15:33:52.677Z,87.39
2019-03-28T15:36:23.571Z,87.34
2019-03-28T15:38:55.900Z,87.44
2019-03-28T15:41:26.313Z,87.36
2019-03-28T15:43:57.162Z,87.50
2019-03-28T15:46:28.009Z,87.15
2019-03-28T15:48:59.048Z,87.04
2019-03-28T15:51:29.615Z,87.62
2019-03-28T15:54:00.434Z,87.66
2019-03-28T15:56:30.970Z,87.86
2019-03-28T15:59:01.926Z,87.64
2019-03-28T16:01:33.618Z,87.31
2019-03-28T16:04:04.821Z,87.95
2019-03-28T16:06:41.568Z,87.74
2019-03-28T16:09:12.606Z,87.95
2019-03-28T16:11:43.634Z,88.20
2019-03-28T16:14:14.524Z,88.06
2019-03-28T16:16:45.425Z,88.15
2019-03-28T16:19:16.706Z,88.10
2019-03-28T16:21:47.784Z,87.87
2019-03-28T16:24:20.218Z,87.84
2019-03-28T16:26:52.628Z,87.79
2019-03-28T16:29:34.814Z,88.00
2019-03-28T16:32:07.608Z,88.18
2019-03-28T16:34:43.360Z,87.96
2019-03-28T16:37:13.112Z,87.94
2019-03-28T16:39:43.915Z,88.04
2019-03-28T16:42:15.763Z,87.31
2019-03-28T16:44:50.758Z,87.48
2019-03-28T16:47:21.741Z,87.51
2019-03-28T16:49:54.174Z,87.68
2019-03-28T16:52:24.950Z,88.09
2019-03-28T16:54:58.500Z,88.10
2019-03-28T16:57:29.454Z,87.16
2019-03-28T17:00:01.690Z,86.98
2019-03-28T17:02:34.064Z,87.16
2019-03-28T17:05:08.686Z,86.74
2019-03-28T17:07:40.516Z,88.05
2019-03-28T17:10:14.055Z,87.74
2019-03-28T17:12:46.578Z,87.74
2019-03-28T17:15:17.735Z,88.06
2019-03-28T17:17:50.688Z,88.05
2019-03-28T17:20:21.066Z,88.20
2019-03-28T17:22:51.805Z,87.58
2019-03-28T17:25:22.916Z,88.07
2019-03-28T17:27:53.745Z,88.21
2019-03-28T17:30:24.788Z,87.84
2019-03-28T17:32:55.591Z,87.26
2019-03-28T17:35:26.383Z,87.92
2019-03-28T17:37:58.311Z,87.95
2019-03-28T17:40:29.924Z,87.78
2019-03-28T17:43:01.670Z,87.37
2019-03-28T17:45:32.553Z,87.98
2019-03-28T17:48:03.366Z,87.69
2019-03-28T17:50:35.480Z,87.42
2019-03-28T17:53:06.611Z,87.95
2019-03-28T17:55:37.413Z,88.03
2019-03-28T17:58:08.709Z,88.03
2019-03-28T18:00:39.839Z,88.00
2019-03-28T18:03:10.657Z,88.00
2019-03-28T18:05:42.494Z,87.99
2019-03-28T18:08:13.381Z,87.98
2019-03-28T18:10:44.532Z,87.69
2019-03-28T18:13:14.983Z,87.96
2019-03-28T18:15:45.845Z,88.11
2019-03-28T18:18:16.788Z,88.15
2019-03-28T18:20:47.718Z,87.88
2019-03-28T18:23:18.675Z,87.71
2019-03-28T18:25:49.467Z,88.15
2019-03-28T18:28:20.347Z,88.22
2019-03-28T18:30:51.256Z,88.15
2019-03-28T18:33:22.110Z,88.15
2019-03-28T18:35:53.088Z,88.40
2019-03-28T18:38:23.522Z,88.51
2019-03-28T18:40:53.971Z,88.36
2019-03-28T18:43:26.307Z,87.80
2019-03-28T18:45:57.062Z,88.16
2019-03-28T18:48:35.843Z,88.22
2019-03-28T18:51:00.364Z,88.06
2019-03-28T18:53:31.375Z,87.70
2019-03-28T18:56:02.191Z,87.39
2019-03-28T18:58:33.130Z,86.48
2019-03-28T19:01:04.043Z,87.74
2019-03-28T19:03:35.329Z,87.99
2019-03-28T19:06:06.233Z,88.47
2019-03-28T19:08:36.783Z,88.31
2019-03-28T19:11:07.599Z,88.38
2019-03-28T19:13:39.652Z,89.05
2019-03-28T19:16:10.613Z,88.53
2019-03-28T19:18:41.601Z,88.82
2019-03-28T19:21:12.497Z,88.32
2019-03-28T19:23:43.455Z,88.53
2019-03-28T19:26:15.887Z,88.82
2019-03-28T19:28:46.730Z,88.12
2019-03-28T19:31:17.458Z,88.70
2019-03-28T19:33:48.433Z,88.79
2019-03-28T19:36:19.269Z,89.28
2019-03-28T19:38:50.881Z,89.23
2019-03-28T19:41:21.681Z,88.93
2019-03-28T19:44:02.975Z,89.47
2019-03-28T19:46:33.757Z,88.81
2019-03-28T19:49:04.709Z,88.41
2019-03-28T19:51:36.837Z,88.78
2019-03-28T19:54:07.801Z,88.71
2019-03-28T19:56:43.423Z,88.57
2019-03-28T19:59:14.223Z,88.21
2019-03-28T20:01:45.291Z,88.88
2019-03-28T20:04:17.723Z,89.23
2019-03-28T20:06:48.657Z,89.21
2019-03-28T20:09:19.471Z,89.68
2019-03-28T20:11:53.203Z,89.49
2019-03-28T20:14:24.026Z,89.57
2019-03-28T20:16:56.041Z,89.25
2019-03-28T20:19:26.949Z,89.15
2019-03-28T20:21:59.519Z,88.83
2019-03-28T20:24:33.386Z,88.44
2019-03-28T20:27:04.361Z,88.62
2019-03-28T20:29:39.954Z,88.69
2019-03-28T20:32:11.839Z,88.56
2019-03-28T20:34:42.532Z,88.67
2019-03-28T20:37:14.925Z,89.03
2019-03-28T20:39:45.794Z,88.89
2019-03-28T20:42:16.559Z,88.89
2019-03-28T20:44:47.271Z,88.48
2019-03-28T20:47:18.175Z,87.90
2019-03-28T20:49:50.596Z,88.27
2019-03-28T20:52:22.886Z,88.59
2019-03-28T20:54:53.836Z,88.86
2019-03-28T20:57:24.789Z,88.96
2019-03-28T20:59:55.692Z,88.98
2019-03-28T21:02:26.610Z,88.86
2019-03-28T21:05:01.059Z,88.94
2019-03-28T21:07:32.280Z,88.97
2019-03-28T21:10:03.690Z,88.71
2019-03-28T21:12:34.829Z,88.59
2019-03-28T21:15:07.413Z,88.57
2019-03-28T21:17:38.186Z,88.36
2019-03-28T21:20:09.137Z,88.44
2019-03-28T21:22:39.933Z,88.31
2019-03-28T21:25:10.537Z,88.24
2019-03-28T21:27:41.588Z,88.23
2019-03-28T21:30:13.096Z,87.94
2019-03-28T21:32:54.633Z,88.02
2019-03-28T21:35:16.478Z,88.15
2019-03-28T21:37:47.326Z,87.84
2019-03-28T21:40:23.546Z,88.18
2019-03-28T21:42:54.382Z,88.44
2019-03-28T21:45:42.075Z,88.63
2019-03-28T21:48:23.386Z,88.33
2019-03-28T21:50:57.027Z,88.56
2019-03-28T21:53:33.054Z,88.51
2019-03-28T21:56:04.370Z,88.58
2019-03-28T21:58:35.558Z,88.76
2019-03-28T22:01:07.142Z,88.30
2019-03-28T22:03:39.822Z,88.28
2019-03-28T22:06:10.449Z,88.49
2019-03-28T22:08:41.337Z,88.44
2019-03-28T22:11:12.308Z,88.63
2019-03-28T22:13:43.081Z,88.25
2019-03-28T22:16:14.042Z,88.27
2019-03-28T22:18:45.164Z,88.58
2019-03-28T22:21:16.023Z,88.64
2019-03-28T22:23:47.036Z,88.20
2019-03-28T22:26:17.748Z,87.64
2019-03-28T22:28:49.018Z,88.28
2019-03-28T22:31:19.848Z,88.21
2019-03-28T22:33:50.787Z,88.34
2019-03-28T22:36:21.518Z,88.40
2019-03-28T22:38:52.372Z,88.18
2019-03-28T22:41:22.894Z,88.24
2019-03-28T22:43:54.165Z,88.40
2019-03-28T22:46:25.068Z,88.64
2019-03-28T22:48:55.844Z,88.20
2019-03-28T22:51:27.393Z,88.20
2019-03-28T22:53:58.422Z,88.15
2019-03-28T22:56:29.262Z,87.87
2019-03-28T22:59:00.284Z,87.87
2019-03-28T23:01:31.430Z,88.38
2019-03-28T23:04:08.400Z,88.18
2019-03-28T23:06:39.390Z,88.33
2019-03-28T23:09:13.390Z,88.25
2019-03-28T23:11:44.955Z,88.26
2019-03-28T23:14:15.766Z,88.12
2019-03-28T23:16:46.696Z,87.95
2019-03-28T23:19:17.396Z,88.13
2019-03-28T23:21:48.156Z,88.49
2019-03-28T23:24:19.129Z,88.42
2019-03-28T23:26:49.954Z,88.18
2019-03-28T23:29:20.810Z,88.30
2019-03-28T23:31:51.617Z,88.48
2019-03-28T23:34:22.912Z,87.80
2019-03-28T23:36:55.419Z,87.97
2019-03-28T23:39:26.150Z,88.29
2019-03-28T23:41:56.553Z,88.40
2019-03-28T23:44:27.813Z,88.51
2019-03-28T23:46:58.658Z,88.61
2019-03-28T23:49:29.055Z,88.32
2019-03-28T23:51:59.852Z,88.51
2019-03-28T23:54:30.798Z,88.56
2019-03-28T23:57:04.917Z,88.82
2019-03-28T23:59:35.744Z,88.70
